Terminal Aerodrome Forecast
Issued by NWS Raleigh/Durham, NC

Home | Current Version | Previous Version | Text Only | Print | Product List | Glossary On
Versions: 1 2 3 4 5 6 7 8 9 10 11 12 13 14 15 16 17 18 19 20
000
FTUS42 KRAH 282042 AAA
TAFFAY
TAF AMD
KFAY 282042Z 2821/2918 28011KT P6SM SCT100 BKN250
      TEMPO 2821/2823 3SM -SHRA BKN030
     FM290000 34010KT P6SM SKC=

USA.gov is the U.S. government's official web portal to all federal, state and local government web resources and services.